sensor_id;sensor_type;location;lat;lon;timestamp;temperature;humidity
51863;DHT22;37900;52.996;6.278;2022-12-29T00:00:06;16.70;91.60
51863;DHT22;37900;52.996;6.278;2022-12-29T00:02:32;16.70;91.60
51863;DHT22;37900;52.996;6.278;2022-12-29T00:04:58;16.70;91.60
51863;DHT22;37900;52.996;6.278;2022-12-29T00:07:24;16.60;91.60
51863;DHT22;37900;52.996;6.278;2022-12-29T00:09:49;16.60;91.50
51863;DHT22;37900;52.996;6.278;2022-12-29T00:12:15;16.60;91.50
51863;DHT22;37900;52.996;6.278;2022-12-29T00:14:41;16.70;91.50
51863;DHT22;37900;52.996;6.278;2022-12-29T00:17:25;16.60;91.50
51863;DHT22;37900;52.996;6.278;2022-12-29T00:19:50;16.60;91.50
51863;DHT22;37900;52.996;6.278;2022-12-29T00:22:35;16.60;91.40
51863;DHT22;37900;52.996;6.278;2022-12-29T00:25:19;16.60;91.40
51863;DHT22;37900;52.996;6.278;2022-12-29T00:28:04;16.60;91.40
51863;DHT22;37900;52.996;6.278;2022-12-29T00:30:48;16.60;91.40
51863;DHT22;37900;52.996;6.278;2022-12-29T00:33:33;16.60;91.30
51863;DHT22;37900;52.996;6.278;2022-12-29T00:38:49;16.60;91.30
51863;DHT22;37900;52.996;6.278;2022-12-29T00:41:34;16.60;91.30
51863;DHT22;37900;52.996;6.278;2022-12-29T00:44:19;16.60;91.20
51863;DHT22;37900;52.996;6.278;2022-12-29T00:46:44;16.60;91.20
51863;DHT22;37900;52.996;6.278;2022-12-29T00:49:12;16.60;91.20
51863;DHT22;37900;52.996;6.278;2022-12-29T00:52:07;16.60;91.10
51863;DHT22;37900;52.996;6.278;2022-12-29T00:54:36;16.60;91.10
51863;DHT22;37900;52.996;6.278;2022-12-29T00:57:03;16.60;91.10
51863;DHT22;37900;52.996;6.278;2022-12-29T00:59:29;16.50;91.10
51863;DHT22;37900;52.996;6.278;2022-12-29T01:01:55;16.60;91.10
51863;DHT22;37900;52.996;6.278;2022-12-29T01:04:23;16.50;91.10
51863;DHT22;37900;52.996;6.278;2022-12-29T01:06:49;16.50;91.10
51863;DHT22;37900;52.996;6.278;2022-12-29T01:09:17;16.60;91.00
51863;DHT22;37900;52.996;6.278;2022-12-29T01:12:02;16.50;91.00
51863;DHT22;37900;52.996;6.278;2022-12-29T01:14:28;16.50;91.00
51863;DHT22;37900;52.996;6.278;2022-12-29T01:16:54;16.50;91.00
51863;DHT22;37900;52.996;6.278;2022-12-29T01:19:20;16.50;91.00
51863;DHT22;37900;52.996;6.278;2022-12-29T01:21:46;16.50;90.90
51863;DHT22;37900;52.996;6.278;2022-12-29T01:24:13;16.50;90.90
51863;DHT22;37900;52.996;6.278;2022-12-29T01:26:39;16.50;90.90
51863;DHT22;37900;52.996;6.278;2022-12-29T01:29:05;16.50;90.90
51863;DHT22;37900;52.996;6.278;2022-12-29T01:31:31;16.50;90.90
51863;DHT22;37900;52.996;6.278;2022-12-29T01:33:57;16.50;90.80
51863;DHT22;37900;52.996;6.278;2022-12-29T01:36:23;16.50;90.80
51863;DHT22;37900;52.996;6.278;2022-12-29T01:38:49;16.50;90.80
51863;DHT22;37900;52.996;6.278;2022-12-29T01:41:16;16.50;90.80
51863;DHT22;37900;52.996;6.278;2022-12-29T01:43:58;16.50;90.80
51863;DHT22;37900;52.996;6.278;2022-12-29T01:46:41;16.50;90.80
51863;DHT22;37900;52.996;6.278;2022-12-29T01:49:20;16.50;90.80
51863;DHT22;37900;52.996;6.278;2022-12-29T01:51:54;16.50;90.70
51863;DHT22;37900;52.996;6.278;2022-12-29T01:54:47;16.50;90.70
51863;DHT22;37900;52.996;6.278;2022-12-29T01:57:26;16.50;90.70
51863;DHT22;37900;52.996;6.278;2022-12-29T02:00:00;16.50;90.70
51863;DHT22;37900;52.996;6.278;2022-12-29T02:02:27;16.50;90.70
51863;DHT22;37900;52.996;6.278;2022-12-29T02:04:53;16.50;90.70
51863;DHT22;37900;52.996;6.278;2022-12-29T02:07:22;16.50;90.70
51863;DHT22;37900;52.996;6.278;2022-12-29T02:09:51;16.50;90.70
51863;DHT22;37900;52.996;6.278;2022-12-29T02:12:20;16.50;90.70
51863;DHT22;37900;52.996;6.278;2022-12-29T02:14:47;16.40;90.60
51863;DHT22;37900;52.996;6.278;2022-12-29T02:20:06;16.50;90.60
51863;DHT22;37900;52.996;6.278;2022-12-29T02:25:51;16.50;90.60
51863;DHT22;37900;52.996;6.278;2022-12-29T02:39:04;16.40;90.50
51863;DHT22;37900;52.996;6.278;2022-12-29T02:41:36;16.40;90.50
51863;DHT22;37900;52.996;6.278;2022-12-29T02:44:22;16.40;90.50
51863;DHT22;37900;52.996;6.278;2022-12-29T02:46:53;16.50;90.50
51863;DHT22;37900;52.996;6.278;2022-12-29T02:52:00;16.40;90.50
51863;DHT22;37900;52.996;6.278;2022-12-29T02:54:27;16.40;90.50
51863;DHT22;37900;52.996;6.278;2022-12-29T02:59:51;16.40;90.50
51863;DHT22;37900;52.996;6.278;2022-12-29T03:13:13;16.40;90.40
51863;DHT22;37900;52.996;6.278;2022-12-29T03:24:22;16.40;90.30
51863;DHT22;37900;52.996;6.278;2022-12-29T03:26:49;16.40;90.30
51863;DHT22;37900;52.996;6.278;2022-12-29T03:29:17;16.40;90.30
51863;DHT22;37900;52.996;6.278;2022-12-29T03:31:44;16.40;90.30
51863;DHT22;37900;52.996;6.278;2022-12-29T03:34:12;16.40;90.30
51863;DHT22;37900;52.996;6.278;2022-12-29T03:37:02;16.40;90.30
51863;DHT22;37900;52.996;6.278;2022-12-29T03:39:30;16.40;90.30
51863;DHT22;37900;52.996;6.278;2022-12-29T03:42:02;16.40;90.30
51863;DHT22;37900;52.996;6.278;2022-12-29T03:44:38;16.40;90.30
51863;DHT22;37900;52.996;6.278;2022-12-29T03:47:05;16.40;90.30
51863;DHT22;37900;52.996;6.278;2022-12-29T03:49:31;16.40;90.30
51863;DHT22;37900;52.996;6.278;2022-12-29T03:51:57;16.40;90.30
51863;DHT22;37900;52.996;6.278;2022-12-29T03:54:23;16.30;90.30
51863;DHT22;37900;52.996;6.278;2022-12-29T03:56:49;16.40;90.30
51863;DHT22;37900;52.996;6.278;2022-12-29T03:59:14;16.40;90.30
51863;DHT22;37900;52.996;6.278;2022-12-29T04:01:40;16.40;90.30
51863;DHT22;37900;52.996;6.278;2022-12-29T04:04:06;16.40;90.20
51863;DHT22;37900;52.996;6.278;2022-12-29T04:06:31;16.30;90.20
51863;DHT22;37900;52.996;6.278;2022-12-29T04:08:57;16.40;90.20
51863;DHT22;37900;52.996;6.278;2022-12-29T04:11:23;16.40;90.20
51863;DHT22;37900;52.996;6.278;2022-12-29T04:13:49;16.40;90.20
51863;DHT22;37900;52.996;6.278;2022-12-29T04:16:15;16.30;90.20
51863;DHT22;37900;52.996;6.278;2022-12-29T04:18:40;16.30;90.20
51863;DHT22;37900;52.996;6.278;2022-12-29T04:21:06;16.30;90.20
51863;DHT22;37900;52.996;6.278;2022-12-29T04:23:37;16.30;90.20
51863;DHT22;37900;52.996;6.278;2022-12-29T04:26:04;16.30;90.10
51863;DHT22;37900;52.996;6.278;2022-12-29T04:28:29;16.30;90.20
51863;DHT22;37900;52.996;6.278;2022-12-29T04:30:55;16.30;90.20
51863;DHT22;37900;52.996;6.278;2022-12-29T04:33:21;16.30;90.20
51863;DHT22;37900;52.996;6.278;2022-12-29T04:35:47;16.30;90.10
51863;DHT22;37900;52.996;6.278;2022-12-29T04:38:14;16.30;90.10
51863;DHT22;37900;52.996;6.278;2022-12-29T04:40:41;16.30;90.10
51863;DHT22;37900;52.996;6.278;2022-12-29T04:43:07;16.20;90.10
51863;DHT22;37900;52.996;6.278;2022-12-29T04:45:33;16.30;90.10
51863;DHT22;37900;52.996;6.278;2022-12-29T04:47:59;16.30;90.10
51863;DHT22;37900;52.996;6.278;2022-12-29T04:50:24;16.30;90.10
51863;DHT22;37900;52.996;6.278;2022-12-29T04:52:50;16.30;90.10
51863;DHT22;37900;52.996;6.278;2022-12-29T04:55:16;16.30;90.10
51863;DHT22;37900;52.996;6.278;2022-12-29T04:57:42;16.30;90.10
51863;DHT22;37900;52.996;6.278;2022-12-29T05:00:08;16.30;90.10
51863;DHT22;37900;52.996;6.278;2022-12-29T05:02:37;16.30;90.10
51863;DHT22;37900;52.996;6.278;2022-12-29T05:05:04;16.30;90.10
51863;DHT22;37900;52.996;6.278;2022-12-29T05:07:30;16.30;90.10
51863;DHT22;37900;52.996;6.278;2022-12-29T05:09:55;16.30;90.10
51863;DHT22;37900;52.996;6.278;2022-12-29T05:12:21;16.30;90.10
51863;DHT22;37900;52.996;6.278;2022-12-29T05:14:47;16.30;90.10
51863;DHT22;37900;52.996;6.278;2022-12-29T05:17:12;16.30;90.10
51863;DHT22;37900;52.996;6.278;2022-12-29T05:19:38;16.30;90.00
51863;DHT22;37900;52.996;6.278;2022-12-29T05:22:04;16.30;90.10
51863;DHT22;37900;52.996;6.278;2022-12-29T05:24:30;16.30;90.00
51863;DHT22;37900;52.996;6.278;2022-12-29T05:26:55;16.30;90.00
51863;DHT22;37900;52.996;6.278;2022-12-29T05:29:21;16.30;90.00
51863;DHT22;37900;52.996;6.278;2022-12-29T05:31:47;16.30;90.00
51863;DHT22;37900;52.996;6.278;2022-12-29T05:34:12;16.30;90.00
51863;DHT22;37900;52.996;6.278;2022-12-29T05:36:39;16.30;90.00
51863;DHT22;37900;52.996;6.278;2022-12-29T05:39:05;16.30;90.00
51863;DHT22;37900;52.996;6.278;2022-12-29T05:41:33;16.30;90.00
51863;DHT22;37900;52.996;6.278;2022-12-29T05:43:59;16.30;90.00
51863;DHT22;37900;52.996;6.278;2022-12-29T05:46:25;16.30;90.00
51863;DHT22;37900;52.996;6.278;2022-12-29T05:48:51;16.30;90.00
51863;DHT22;37900;52.996;6.278;2022-12-29T05:51:17;16.30;90.00
51863;DHT22;37900;52.996;6.278;2022-12-29T05:53:42;16.20;90.00
51863;DHT22;37900;52.996;6.278;2022-12-29T05:56:08;16.20;90.00
51863;DHT22;37900;52.996;6.278;2022-12-29T05:58:34;16.30;90.00
51863;DHT22;37900;52.996;6.278;2022-12-29T06:01:00;16.30;90.00
51863;DHT22;37900;52.996;6.278;2022-12-29T06:03:25;16.30;90.00
51863;DHT22;37900;52.996;6.278;2022-12-29T06:05:51;16.20;89.90
51863;DHT22;37900;52.996;6.278;2022-12-29T06:08:17;16.20;89.90
51863;DHT22;37900;52.996;6.278;2022-12-29T06:10:43;16.20;89.90
51863;DHT22;37900;52.996;6.278;2022-12-29T06:13:09;16.30;90.00
51863;DHT22;37900;52.996;6.278;2022-12-29T06:15:35;16.20;89.90
51863;DHT22;37900;52.996;6.278;2022-12-29T06:18:01;16.30;89.90
51863;DHT22;37900;52.996;6.278;2022-12-29T06:20:27;16.20;89.80
51863;DHT22;37900;52.996;6.278;2022-12-29T06:22:52;16.20;89.80
51863;DHT22;37900;52.996;6.278;2022-12-29T06:25:18;16.20;89.80
51863;DHT22;37900;52.996;6.278;2022-12-29T06:27:44;16.20;89.80
51863;DHT22;37900;52.996;6.278;2022-12-29T06:30:10;16.20;89.80
51863;DHT22;37900;52.996;6.278;2022-12-29T06:32:36;16.20;89.70
51863;DHT22;37900;52.996;6.278;2022-12-29T06:35:03;16.20;89.80
51863;DHT22;37900;52.996;6.278;2022-12-29T06:37:29;16.20;89.80
51863;DHT22;37900;52.996;6.278;2022-12-29T06:39:55;16.20;89.70
51863;DHT22;37900;52.996;6.278;2022-12-29T06:42:21;16.20;89.70
51863;DHT22;37900;52.996;6.278;2022-12-29T06:44:47;16.20;89.70
51863;DHT22;37900;52.996;6.278;2022-12-29T06:47:12;16.20;89.70
51863;DHT22;37900;52.996;6.278;2022-12-29T06:49:38;16.20;89.70
51863;DHT22;37900;52.996;6.278;2022-12-29T06:52:04;16.20;89.70
51863;DHT22;37900;52.996;6.278;2022-12-29T06:54:33;16.20;89.70
51863;DHT22;37900;52.996;6.278;2022-12-29T06:57:00;16.20;89.60
51863;DHT22;37900;52.996;6.278;2022-12-29T06:59:25;16.20;89.60
51863;DHT22;37900;52.996;6.278;2022-12-29T07:01:52;16.20;89.60
51863;DHT22;37900;52.996;6.278;2022-12-29T07:04:17;16.20;89.60
51863;DHT22;37900;52.996;6.278;2022-12-29T07:06:43;16.20;89.60
51863;DHT22;37900;52.996;6.278;2022-12-29T07:09:09;16.20;89.60
51863;DHT22;37900;52.996;6.278;2022-12-29T07:11:35;16.20;89.60
51863;DHT22;37900;52.996;6.278;2022-12-29T07:14:01;16.20;89.60
51863;DHT22;37900;52.996;6.278;2022-12-29T07:16:27;16.20;89.60
51863;DHT22;37900;52.996;6.278;2022-12-29T07:18:55;16.20;89.60
51863;DHT22;37900;52.996;6.278;2022-12-29T07:21:21;16.20;89.50
51863;DHT22;37900;52.996;6.278;2022-12-29T07:23:47;16.20;89.60
51863;DHT22;37900;52.996;6.278;2022-12-29T07:26:14;16.20;89.50
51863;DHT22;37900;52.996;6.278;2022-12-29T07:28:40;16.20;89.50
51863;DHT22;37900;52.996;6.278;2022-12-29T07:31:14;16.20;89.50
51863;DHT22;37900;52.996;6.278;2022-12-29T07:33:41;16.20;89.40
51863;DHT22;37900;52.996;6.278;2022-12-29T07:36:07;16.20;89.50
51863;DHT22;37900;52.996;6.278;2022-12-29T07:38:32;16.20;89.50
51863;DHT22;37900;52.996;6.278;2022-12-29T07:40:58;16.10;89.40
51863;DHT22;37900;52.996;6.278;2022-12-29T07:43:24;16.20;89.40
51863;DHT22;37900;52.996;6.278;2022-12-29T07:45:50;16.20;89.40
51863;DHT22;37900;52.996;6.278;2022-12-29T07:48:16;16.20;89.40
51863;DHT22;37900;52.996;6.278;2022-12-29T07:50:41;16.10;89.30
51863;DHT22;37900;52.996;6.278;2022-12-29T07:53:07;16.10;89.30
51863;DHT22;37900;52.996;6.278;2022-12-29T07:55:33;16.10;89.30
51863;DHT22;37900;52.996;6.278;2022-12-29T07:57:58;16.10;89.30
51863;DHT22;37900;52.996;6.278;2022-12-29T08:00:24;16.10;89.30
51863;DHT22;37900;52.996;6.278;2022-12-29T08:02:50;16.10;89.20
51863;DHT22;37900;52.996;6.278;2022-12-29T08:05:16;16.10;89.30
51863;DHT22;37900;52.996;6.278;2022-12-29T08:07:45;16.10;89.20
51863;DHT22;37900;52.996;6.278;2022-12-29T08:10:12;16.10;89.20
51863;DHT22;37900;52.996;6.278;2022-12-29T08:12:38;16.20;89.20
51863;DHT22;37900;52.996;6.278;2022-12-29T08:15:05;16.10;89.20
51863;DHT22;37900;52.996;6.278;2022-12-29T08:17:31;16.10;89.20
51863;DHT22;37900;52.996;6.278;2022-12-29T08:19:56;16.10;89.20
51863;DHT22;37900;52.996;6.278;2022-12-29T08:22:22;16.10;89.20
51863;DHT22;37900;52.996;6.278;2022-12-29T08:24:48;16.10;89.30
51863;DHT22;37900;52.996;6.278;2022-12-29T08:27:14;16.10;89.40
51863;DHT22;37900;52.996;6.278;2022-12-29T08:29:40;16.10;89.50
51863;DHT22;37900;52.996;6.278;2022-12-29T08:32:05;16.10;89.60
51863;DHT22;37900;52.996;6.278;2022-12-29T08:34:32;16.10;89.80
51863;DHT22;37900;52.996;6.278;2022-12-29T08:36:57;16.10;89.80
51863;DHT22;37900;52.996;6.278;2022-12-29T08:39:23;16.10;89.90
51863;DHT22;37900;52.996;6.278;2022-12-29T08:41:49;16.10;90.00
51863;DHT22;37900;52.996;6.278;2022-12-29T08:44:14;16.10;90.00
51863;DHT22;37900;52.996;6.278;2022-12-29T08:46:40;16.10;90.00
51863;DHT22;37900;52.996;6.278;2022-12-29T08:49:06;16.10;90.00
51863;DHT22;37900;52.996;6.278;2022-12-29T08:51:32;16.20;90.10
51863;DHT22;37900;52.996;6.278;2022-12-29T08:53:58;16.10;90.10
51863;DHT22;37900;52.996;6.278;2022-12-29T08:56:25;16.20;90.10
51863;DHT22;37900;52.996;6.278;2022-12-29T08:58:52;16.10;90.20
51863;DHT22;37900;52.996;6.278;2022-12-29T09:01:18;16.20;90.30
51863;DHT22;37900;52.996;6.278;2022-12-29T09:03:44;16.20;90.40
51863;DHT22;37900;52.996;6.278;2022-12-29T09:06:09;16.20;90.40
51863;DHT22;37900;52.996;6.278;2022-12-29T09:08:35;16.20;90.50
51863;DHT22;37900;52.996;6.278;2022-12-29T09:11:20;16.20;90.60
51863;DHT22;37900;52.996;6.278;2022-12-29T09:13:46;16.20;90.60
51863;DHT22;37900;52.996;6.278;2022-12-29T09:16:12;16.20;90.60
51863;DHT22;37900;52.996;6.278;2022-12-29T09:18:38;16.20;90.70
51863;DHT22;37900;52.996;6.278;2022-12-29T09:21:05;16.20;90.70
51863;DHT22;37900;52.996;6.278;2022-12-29T09:23:32;16.20;90.80
51863;DHT22;37900;52.996;6.278;2022-12-29T09:25:58;16.20;90.80
51863;DHT22;37900;52.996;6.278;2022-12-29T09:28:24;16.20;90.80
51863;DHT22;37900;52.996;6.278;2022-12-29T09:30:50;16.30;90.90
51863;DHT22;37900;52.996;6.278;2022-12-29T09:33:16;16.30;90.90
51863;DHT22;37900;52.996;6.278;2022-12-29T09:35:53;16.30;91.00
51863;DHT22;37900;52.996;6.278;2022-12-29T09:38:19;16.30;91.00
51863;DHT22;37900;52.996;6.278;2022-12-29T09:40:50;16.30;91.00
51863;DHT22;37900;52.996;6.278;2022-12-29T09:48:43;16.30;91.20
51863;DHT22;37900;52.996;6.278;2022-12-29T09:51:13;16.30;91.20
51863;DHT22;37900;52.996;6.278;2022-12-29T09:53:41;16.30;91.20
51863;DHT22;37900;52.996;6.278;2022-12-29T09:56:15;16.30;91.20
51863;DHT22;37900;52.996;6.278;2022-12-29T09:59:02;16.30;91.20
51863;DHT22;37900;52.996;6.278;2022-12-29T10:03:57;16.30;91.20
51863;DHT22;37900;52.996;6.278;2022-12-29T10:14:29;15.90;91.10
51863;DHT22;37900;52.996;6.278;2022-12-29T10:22:44;16.30;91.20
51863;DHT22;37900;52.996;6.278;2022-12-29T10:25:18;16.20;91.20
51863;DHT22;37900;52.996;6.278;2022-12-29T10:27:50;16.30;91.20
51863;DHT22;37900;52.996;6.278;2022-12-29T10:30:17;16.20;91.20
51863;DHT22;37900;52.996;6.278;2022-12-29T10:33:07;16.30;91.20
51863;DHT22;37900;52.996;6.278;2022-12-29T10:35:37;16.30;91.40
51863;DHT22;37900;52.996;6.278;2022-12-29T10:43:24;16.30;91.10
51863;DHT22;37900;52.996;6.278;2022-12-29T10:45:52;16.20;91.10
51863;DHT22;37900;52.996;6.278;2022-12-29T10:48:32;16.20;91.10
51863;DHT22;37900;52.996;6.278;2022-12-29T10:51:00;16.20;91.10
51863;DHT22;37900;52.996;6.278;2022-12-29T10:53:42;16.10;91.00
51863;DHT22;37900;52.996;6.278;2022-12-29T10:56:25;16.20;91.00
51863;DHT22;37900;52.996;6.278;2022-12-29T10:58:55;16.20;91.00
51863;DHT22;37900;52.996;6.278;2022-12-29T11:01:22;16.20;91.00
51863;DHT22;37900;52.996;6.278;2022-12-29T11:03:50;16.20;91.00
51863;DHT22;37900;52.996;6.278;2022-12-29T11:06:26;16.20;91.00
51863;DHT22;37900;52.996;6.278;2022-12-29T11:11:35;16.20;91.20
51863;DHT22;37900;52.996;6.278;2022-12-29T11:14:29;16.20;91.00
51863;DHT22;37900;52.996;6.278;2022-12-29T11:17:00;16.20;91.00
51863;DHT22;37900;52.996;6.278;2022-12-29T11:19:32;16.20;91.00
51863;DHT22;37900;52.996;6.278;2022-12-29T11:24:46;16.20;90.90
51863;DHT22;37900;52.996;6.278;2022-12-29T11:27:23;16.20;90.90
51863;DHT22;37900;52.996;6.278;2022-12-29T11:29:51;16.20;90.90
51863;DHT22;37900;52.996;6.278;2022-12-29T11:32:18;16.20;90.90
51863;DHT22;37900;52.996;6.278;2022-12-29T11:34:44;16.20;90.90
51863;DHT22;37900;52.996;6.278;2022-12-29T11:37:31;16.20;91.00
51863;DHT22;37900;52.996;6.278;2022-12-29T11:40:18;16.20;91.00
51863;DHT22;37900;52.996;6.278;2022-12-29T11:42:51;16.20;91.00
51863;DHT22;37900;52.996;6.278;2022-12-29T11:45:24;16.20;91.10
51863;DHT22;37900;52.996;6.278;2022-12-29T11:47:59;16.20;91.20
51863;DHT22;37900;52.996;6.278;2022-12-29T11:50:29;16.30;91.20
51863;DHT22;37900;52.996;6.278;2022-12-29T11:53:21;16.20;91.20
51863;DHT22;37900;52.996;6.278;2022-12-29T11:56:04;16.30;91.20
51863;DHT22;37900;52.996;6.278;2022-12-29T11:58:35;16.30;91.20
51863;DHT22;37900;52.996;6.278;2022-12-29T12:01:34;16.30;91.20
51863;DHT22;37900;52.996;6.278;2022-12-29T12:04:12;16.30;91.20
51863;DHT22;37900;52.996;6.278;2022-12-29T12:07:13;16.30;91.20
51863;DHT22;37900;52.996;6.278;2022-12-29T12:10:01;16.30;91.20
51863;DHT22;37900;52.996;6.278;2022-12-29T12:13:05;16.30;91.20
51863;DHT22;37900;52.996;6.278;2022-12-29T12:15:42;16.30;91.20
51863;DHT22;37900;52.996;6.278;2022-12-29T12:21:13;16.30;91.20
51863;DHT22;37900;52.996;6.278;2022-12-29T12:27:29;16.30;91.10
51863;DHT22;37900;52.996;6.278;2022-12-29T12:29:46;16.30;91.10
51863;DHT22;37900;52.996;6.278;2022-12-29T12:32:15;16.30;91.10
51863;DHT22;37900;52.996;6.278;2022-12-29T12:34:44;16.30;91.10
51863;DHT22;37900;52.996;6.278;2022-12-29T12:45:49;16.30;91.20
51863;DHT22;37900;52.996;6.278;2022-12-29T12:51:34;16.40;91.20
51863;DHT22;37900;52.996;6.278;2022-12-29T12:56:57;16.40;91.10
51863;DHT22;37900;52.996;6.278;2022-12-29T12:59:50;16.40;91.10
51863;DHT22;37900;52.996;6.278;2022-12-29T13:07:58;16.40;91.00
51863;DHT22;37900;52.996;6.278;2022-12-29T13:14:07;16.40;91.00
51863;DHT22;37900;52.996;6.278;2022-12-29T13:20:00;16.30;91.00
51863;DHT22;37900;52.996;6.278;2022-12-29T13:23:30;16.30;91.00
51863;DHT22;37900;52.996;6.278;2022-12-29T13:25:51;16.30;91.00
51863;DHT22;37900;52.996;6.278;2022-12-29T13:28:27;16.30;91.00
51863;DHT22;37900;52.996;6.278;2022-12-29T13:31:11;16.30;91.00
51863;DHT22;37900;52.996;6.278;2022-12-29T13:34:00;16.30;91.30
51863;DHT22;37900;52.996;6.278;2022-12-29T13:41:47;16.40;91.70
51863;DHT22;37900;52.996;6.278;2022-12-29T13:50:05;16.50;92.50
51863;DHT22;37900;52.996;6.278;2022-12-29T13:52:51;16.50;92.50
51863;DHT22;37900;52.996;6.278;2022-12-29T13:58:16;16.50;92.60
51863;DHT22;37900;52.996;6.278;2022-12-29T14:01:08;16.50;92.50
51863;DHT22;37900;52.996;6.278;2022-12-29T14:03:47;16.40;92.50
51863;DHT22;37900;52.996;6.278;2022-12-29T14:06:28;16.40;92.50
51863;DHT22;37900;52.996;6.278;2022-12-29T14:09:04;16.50;92.50
51863;DHT22;37900;52.996;6.278;2022-12-29T14:11:33;16.40;92.40
51863;DHT22;37900;52.996;6.278;2022-12-29T14:14:09;16.40;92.40
51863;DHT22;37900;52.996;6.278;2022-12-29T14:16:37;16.40;92.40
51863;DHT22;37900;52.996;6.278;2022-12-29T14:19:28;16.40;92.40
51863;DHT22;37900;52.996;6.278;2022-12-29T14:22:00;16.40;92.30
51863;DHT22;37900;52.996;6.278;2022-12-29T14:34:54;16.40;92.20
51863;DHT22;37900;52.996;6.278;2022-12-29T14:37:29;16.40;92.10
51863;DHT22;37900;52.996;6.278;2022-12-29T14:40:18;16.40;92.10
51863;DHT22;37900;52.996;6.278;2022-12-29T14:42:46;16.40;92.10
51863;DHT22;37900;52.996;6.278;2022-12-29T14:47:46;16.40;92.10
51863;DHT22;37900;52.996;6.278;2022-12-29T14:57:51;16.50;92.40
51863;DHT22;37900;52.996;6.278;2022-12-29T15:00:22;16.50;92.60
51863;DHT22;37900;52.996;6.278;2022-12-29T15:06:04;16.50;92.70
51863;DHT22;37900;52.996;6.278;2022-12-29T15:08:48;16.50;92.70
51863;DHT22;37900;52.996;6.278;2022-12-29T15:11:40;16.50;92.70
51863;DHT22;37900;52.996;6.278;2022-12-29T15:16:58;16.50;92.60
51863;DHT22;37900;52.996;6.278;2022-12-29T15:19:25;16.50;92.50
51863;DHT22;37900;52.996;6.278;2022-12-29T15:21:53;16.50;92.50
51863;DHT22;37900;52.996;6.278;2022-12-29T15:24:19;16.50;92.40
51863;DHT22;37900;52.996;6.278;2022-12-29T15:26:53;16.50;92.40
51863;DHT22;37900;52.996;6.278;2022-12-29T15:29:40;16.50;92.40
51863;DHT22;37900;52.996;6.278;2022-12-29T15:34:41;16.50;92.30
51863;DHT22;37900;52.996;6.278;2022-12-29T15:37:08;16.40;92.30
51863;DHT22;37900;52.996;6.278;2022-12-29T15:39:34;16.40;92.30
51863;DHT22;37900;52.996;6.278;2022-12-29T15:44:51;16.40;92.20
51863;DHT22;37900;52.996;6.278;2022-12-29T15:47:20;16.40;92.20
51863;DHT22;37900;52.996;6.278;2022-12-29T15:49:52;16.40;92.10
51863;DHT22;37900;52.996;6.278;2022-12-29T15:52:20;16.40;92.10
51863;DHT22;37900;52.996;6.278;2022-12-29T15:54:48;16.40;92.10
51863;DHT22;37900;52.996;6.278;2022-12-29T15:57:26;16.40;92.10
51863;DHT22;37900;52.996;6.278;2022-12-29T15:59:52;16.40;92.00
51863;DHT22;37900;52.996;6.278;2022-12-29T16:02:21;16.40;92.00
51863;DHT22;37900;52.996;6.278;2022-12-29T16:04:48;16.50;92.00
51863;DHT22;37900;52.996;6.278;2022-12-29T16:07:32;16.50;92.00
51863;DHT22;37900;52.996;6.278;2022-12-29T16:10:01;16.50;92.00
51863;DHT22;37900;52.996;6.278;2022-12-29T16:12:33;16.50;92.00
51863;DHT22;37900;52.996;6.278;2022-12-29T16:15:13;16.50;91.90
51863;DHT22;37900;52.996;6.278;2022-12-29T16:17:50;16.50;91.90
51863;DHT22;37900;52.996;6.278;2022-12-29T16:20:24;16.50;91.90
51863;DHT22;37900;52.996;6.278;2022-12-29T16:22:54;16.50;91.90
51863;DHT22;37900;52.996;6.278;2022-12-29T16:25:34;16.50;91.90
51863;DHT22;37900;52.996;6.278;2022-12-29T16:28:17;16.50;91.80
51863;DHT22;37900;52.996;6.278;2022-12-29T16:30:43;16.50;91.80
51863;DHT22;37900;52.996;6.278;2022-12-29T16:33:29;16.50;91.80
51863;DHT22;37900;52.996;6.278;2022-12-29T16:35:58;16.40;91.70
51863;DHT22;37900;52.996;6.278;2022-12-29T16:38:31;16.40;91.70
51863;DHT22;37900;52.996;6.278;2022-12-29T16:40:59;16.40;91.70
51863;DHT22;37900;52.996;6.278;2022-12-29T16:43:35;16.40;91.80
51863;DHT22;37900;52.996;6.278;2022-12-29T16:46:27;16.40;91.90
51863;DHT22;37900;52.996;6.278;2022-12-29T16:48:55;16.40;92.10
51863;DHT22;37900;52.996;6.278;2022-12-29T16:51:31;16.40;92.20
51863;DHT22;37900;52.996;6.278;2022-12-29T16:53:59;16.40;92.30
51863;DHT22;37900;52.996;6.278;2022-12-29T16:56:33;16.40;92.40
51863;DHT22;37900;52.996;6.278;2022-12-29T16:59:07;16.50;92.50
51863;DHT22;37900;52.996;6.278;2022-12-29T17:01:38;16.40;92.50
51863;DHT22;37900;52.996;6.278;2022-12-29T17:04:12;16.40;92.60
51863;DHT22;37900;52.996;6.278;2022-12-29T17:06:39;16.50;92.60
51863;DHT22;37900;52.996;6.278;2022-12-29T17:09:26;16.50;92.70
51863;DHT22;37900;52.996;6.278;2022-12-29T17:11:54;16.50;92.70
51863;DHT22;37900;52.996;6.278;2022-12-29T17:19:46;16.60;92.60
51863;DHT22;37900;52.996;6.278;2022-12-29T17:22:17;16.60;92.50
51863;DHT22;37900;52.996;6.278;2022-12-29T17:24:43;16.60;92.50
51863;DHT22;37900;52.996;6.278;2022-12-29T17:27:24;16.60;92.50
51863;DHT22;37900;52.996;6.278;2022-12-29T17:29:54;16.60;92.40
51863;DHT22;37900;52.996;6.278;2022-12-29T17:32:21;16.70;92.40
51863;DHT22;37900;52.996;6.278;2022-12-29T17:34:47;16.70;92.40
51863;DHT22;37900;52.996;6.278;2022-12-29T17:37:36;16.70;92.40
51863;DHT22;37900;52.996;6.278;2022-12-29T17:40:04;16.70;92.30
51863;DHT22;37900;52.996;6.278;2022-12-29T17:42:32;16.80;92.30
51863;DHT22;37900;52.996;6.278;2022-12-29T17:45:01;16.80;92.20
51863;DHT22;37900;52.996;6.278;2022-12-29T17:47:27;16.80;92.20
51863;DHT22;37900;52.996;6.278;2022-12-29T17:49:53;16.80;92.20
51863;DHT22;37900;52.996;6.278;2022-12-29T17:52:19;16.80;92.10
51863;DHT22;37900;52.996;6.278;2022-12-29T17:54:48;16.80;92.10
51863;DHT22;37900;52.996;6.278;2022-12-29T17:57:16;16.90;92.10
51863;DHT22;37900;52.996;6.278;2022-12-29T17:59:42;16.90;92.00
51863;DHT22;37900;52.996;6.278;2022-12-29T18:02:30;16.80;91.90
51863;DHT22;37900;52.996;6.278;2022-12-29T18:04:57;16.80;91.80
51863;DHT22;37900;52.996;6.278;2022-12-29T18:07:27;16.80;91.80
51863;DHT22;37900;52.996;6.278;2022-12-29T18:09:53;16.80;91.70
51863;DHT22;37900;52.996;6.278;2022-12-29T18:12:38;16.80;91.80
51863;DHT22;37900;52.996;6.278;2022-12-29T18:15:05;16.80;91.70
51863;DHT22;37900;52.996;6.278;2022-12-29T18:17:31;16.80;91.70
51863;DHT22;37900;52.996;6.278;2022-12-29T18:19:57;16.70;91.70
51863;DHT22;37900;52.996;6.278;2022-12-29T18:22:23;16.80;91.70
51863;DHT22;37900;52.996;6.278;2022-12-29T18:24:50;16.80;91.70
51863;DHT22;37900;52.996;6.278;2022-12-29T18:27:16;16.80;91.60
51863;DHT22;37900;52.996;6.278;2022-12-29T18:29:44;16.90;91.60
51863;DHT22;37900;52.996;6.278;2022-12-29T18:32:11;16.90;91.50